Time;durP1;ratioP1;P1;durP2;ratioP2;P2;SDS_P1;SDS_P2;PMS_P1;PMS_P2;Temp;Humidity;BMP_temperature;BMP_pressure;BME280_temperature;BME280_humidity;BME280_pressure;Samples;Min_cycle;Max_cycle;Signal;HPM_P1;HPM_P2
2023/06/30 00:02:22;;;;;;;3.83;0.90;;;;;;;;;;4834579;29;20057;-73
2023/06/30 00:04:53;;;;;;;1.17;0.63;;;;;;;;;;4834663;29;20387;-73
2023/06/30 00:07:25;;;;;;;1.38;0.55;;;;;;;;;;4834013;29;20121;-73
2023/06/30 00:09:56;;;;;;;3.90;2.30;;;;;;;;;;4834154;29;20065;-73
2023/06/30 00:12:29;;;;;;;9.25;4.63;;;;;;;;;;4834206;29;20050;-73
2023/06/30 00:15:00;;;;;;;5.18;1.80;;;;;;;;;;4817653;29;20064;-74
2023/06/30 00:17:30;;;;;;;3.60;1.60;;;;;;;;;;4829733;29;20437;-73
2023/06/30 00:20:05;;;;;;;;;;;;;;;;;;4834846;29;20054;-74
2023/06/30 00:22:36;;;;;;;6.78;1.20;;;;;;;;;;4833901;29;19935;-74
2023/06/30 00:25:07;;;;;;;2.15;1.27;;;;;;;;;;4833976;29;20054;-73
2023/06/30 00:27:40;;;;;;;2.42;1.10;;;;;;;;;;4834616;29;20076;-74
2023/06/30 00:30:12;;;;;;;2.25;0.95;;;;;;;;;;4834530;29;20430;-73
2023/06/30 00:32:43;;;;;;;1.98;0.80;;;;;;;;;;4820000;29;20568;-73
2023/06/30 00:35:13;;;;;;;1.17;0.70;;;;;;;;;;4837453;29;20057;-73
2023/06/30 00:37:43;;;;;;;5.88;1.00;;;;;;;;;;4837909;29;20073;-72
2023/06/30 00:40:16;;;;;;;;;;;;;;;;;;4821851;29;20058;-73
2023/06/30 00:42:48;;;;;;;1.08;0.50;;;;;;;;;;4820811;29;19928;-73
2023/06/30 00:45:20;;;;;;;4.28;1.15;;;;;;;;;;4836291;29;20054;-73
2023/06/30 00:47:50;;;;;;;3.63;1.67;;;;;;;;;;4821225;29;20069;-73
2023/06/30 00:50:21;;;;;;;7.30;2.22;;;;;;;;;;4837026;29;20061;-73
2023/06/30 00:52:52;;;;;;;3.53;2.10;;;;;;;;;;4837645;29;20053;-74
2023/06/30 00:55:26;;;;;;;5.72;1.80;;;;;;;;;;4837424;29;20054;-73
2023/06/30 00:57:57;;;;;;;2.55;0.90;;;;;;;;;;4837402;29;20514;-73
2023/06/30 01:00:27;;;;;;;2.45;1.00;;;;;;;;;;4821307;29;20049;-74
2023/06/30 01:03:41;;;;;;;1.42;0.73;;;;;;;;;;4836550;29;20537;-73
2023/06/30 01:06:28;;;;;;;2.35;1.10;;;;;;;;;;4761847;30;20532;-73
2023/06/30 01:09:14;;;;;;;3.53;1.55;;;;;;;;;;4762305;30;20838;-73
2023/06/30 01:11:45;;;;;;;3.65;1.38;;;;;;;;;;4821315;29;20121;-73
2023/06/30 01:14:16;;;;;;;5.07;1.50;;;;;;;;;;4837243;29;20054;-73
2023/06/30 01:16:49;;;;;;;2.83;1.30;;;;;;;;;;4837158;29;20410;-73
2023/06/30 01:19:26;;;;;;;4.47;1.48;;;;;;;;;;4837339;29;20049;-74
2023/06/30 01:22:03;;;;;;;6.20;1.00;;;;;;;;;;4820539;29;20395;-73
2023/06/30 01:24:34;;;;;;;;;;;;;;;;;;4837796;29;20065;-73
2023/06/30 01:27:06;;;;;;;4.00;0.90;;;;;;;;;;4836714;29;19928;-73
2023/06/30 01:29:42;;;;;;;1.58;1.00;;;;;;;;;;4836632;29;20058;-73
2023/06/30 01:32:16;;;;;;;3.17;1.30;;;;;;;;;;4836488;29;20077;-73
2023/06/30 01:34:47;;;;;;;2.13;1.15;;;;;;;;;;4820164;29;20057;-73
2023/06/30 01:37:18;;;;;;;2.95;1.67;;;;;;;;;;4819559;29;20414;-72
2023/06/30 01:39:50;;;;;;;7.68;2.90;;;;;;;;;;4819548;29;20058;-73
2023/06/30 01:42:28;;;;;;;7.47;3.50;;;;;;;;;;4836111;29;20061;-72
2023/06/30 01:44:59;;;;;;;3.97;1.30;;;;;;;;;;4820036;29;20061;-73
2023/06/30 01:47:32;;;;;;;5.47;2.17;;;;;;;;;;4819586;29;20050;-74
2023/06/30 01:50:05;;;;;;;4.05;1.88;;;;;;;;;;4836886;29;20054;-74
2023/06/30 01:52:36;;;;;;;6.85;2.47;;;;;;;;;;4836538;29;20521;-74
2023/06/30 01:55:06;;;;;;;8.25;3.65;;;;;;;;;;4820389;29;20069;-74
2023/06/30 01:57:38;;;;;;;6.80;3.13;;;;;;;;;;4836492;29;20054;-73
2023/06/30 02:00:09;;;;;;;4.40;2.60;;;;;;;;;;4819880;29;20057;-73
2023/06/30 02:02:40;;;;;;;7.65;1.80;;;;;;;;;;4841434;29;20536;-73
2023/06/30 02:05:12;;;;;;;8.45;3.00;;;;;;;;;;4835526;29;20050;-73
2023/06/30 02:07:44;;;;;;;6.10;2.63;;;;;;;;;;4836510;29;20054;-74
2023/06/30 02:10:14;;;;;;;6.22;1.50;;;;;;;;;;4835203;29;20062;-74
2023/06/30 02:12:51;;;;;;;2.55;1.50;;;;;;;;;;4819168;29;20050;-73
2023/06/30 02:15:21;;;;;;;1.98;0.90;;;;;;;;;;4836233;29;20490;-73
2023/06/30 02:17:55;;;;;;;3.10;1.38;;;;;;;;;;4836343;29;20065;-74
2023/06/30 02:20:25;;;;;;;9.52;1.75;;;;;;;;;;4836109;29;20045;-72
2023/06/30 02:22:57;;;;;;;2.50;0.80;;;;;;;;;;4835934;29;20054;-73
2023/06/30 02:25:27;;;;;;;3.35;1.00;;;;;;;;;;4819780;29;20536;-72
2023/06/30 02:27:57;;;;;;;2.45;0.80;;;;;;;;;;4835693;29;20050;-72
2023/06/30 02:30:28;;;;;;;11.85;0.82;;;;;;;;;;4835940;29;20046;-73
2023/06/30 02:32:58;;;;;;;4.60;0.80;;;;;;;;;;4819926;29;20065;-73
2023/06/30 02:35:29;;;;;;;2.55;1.20;;;;;;;;;;4835809;29;20053;-73
2023/06/30 02:38:00;;;;;;;3.63;0.75;;;;;;;;;;4836246;29;20057;-73
2023/06/30 02:40:30;;;;;;;2.60;0.60;;;;;;;;;;4836057;29;20585;-73
2023/06/30 02:43:01;;;;;;;5.38;1.10;;;;;;;;;;4834916;29;20062;-73
2023/06/30 02:45:32;;;;;;;4.07;1.10;;;;;;;;;;4818245;29;20062;-73
2023/06/30 02:48:02;;;;;;;6.25;1.30;;;;;;;;;;4817946;29;20049;-73
2023/06/30 02:50:33;;;;;;;2.03;1.38;;;;;;;;;;4819479;29;20157;-73
2023/06/30 02:53:04;;;;;;;3.30;1.60;;;;;;;;;;4835700;29;20058;-72
2023/06/30 02:55:36;;;;;;;1.20;0.82;;;;;;;;;;4818896;29;20054;-73
2023/06/30 02:58:14;;;;;;;2.13;0.82;;;;;;;;;;4818462;29;20065;-74
2023/06/30 03:00:44;;;;;;;5.00;1.20;;;;;;;;;;4817993;29;20725;-72
2023/06/30 03:03:15;;;;;;;4.50;0.90;;;;;;;;;;4818429;29;20561;-72
2023/06/30 03:05:46;;;;;;;1.30;0.70;;;;;;;;;;4818591;29;20050;-73
2023/06/30 03:08:18;;;;;;;3.65;1.00;;;;;;;;;;4818790;29;20054;-73
2023/06/30 03:10:49;;;;;;;2.83;1.25;;;;;;;;;;4818831;29;20050;-73
2023/06/30 03:13:20;;;;;;;5.80;1.13;;;;;;;;;;4818425;29;20097;-73
2023/06/30 03:15:50;;;;;;;1.55;0.85;;;;;;;;;;4818419;29;20054;-74
2023/06/30 03:18:21;;;;;;;1.27;0.90;;;;;;;;;;4818633;29;20054;-73
2023/06/30 03:20:51;;;;;;;2.60;1.05;;;;;;;;;;4835218;29;20058;-74
2023/06/30 03:23:22;;;;;;;1.05;0.82;;;;;;;;;;4834364;29;20112;-73
2023/06/30 03:25:56;;;;;;;1.95;0.68;;;;;;;;;;4818232;29;20058;-73
2023/06/30 03:28:27;;;;;;;7.43;1.02;;;;;;;;;;4803744;29;20061;-72
2023/06/30 03:30:58;;;;;;;1.58;0.70;;;;;;;;;;4834895;29;20065;-73
2023/06/30 03:33:28;;;;;;;;;;;;;;;;;;4818729;29;20462;-73
2023/06/30 03:35:58;;;;;;;1.80;0.85;;;;;;;;;;4834579;29;19944;-73
2023/06/30 03:38:31;;;;;;;5.40;0.82;;;;;;;;;;4818069;29;20060;-73
2023/06/30 03:41:01;;;;;;;4.22;0.90;;;;;;;;;;4818407;29;20057;-73
2023/06/30 03:43:33;;;;;;;4.88;2.35;;;;;;;;;;4835446;29;20065;-74
2023/06/30 03:46:04;;;;;;;5.47;3.00;;;;;;;;;;4817854;29;20053;-74
2023/06/30 03:48:35;;;;;;;7.60;2.47;;;;;;;;;;4833979;29;20053;-74
2023/06/30 03:51:07;;;;;;;11.13;5.13;;;;;;;;;;4818404;29;20065;-73
2023/06/30 03:53:37;;;;;;;9.55;4.07;;;;;;;;;;4834609;29;20088;-73
2023/06/30 03:56:07;;;;;;;6.28;3.40;;;;;;;;;;4803523;29;20064;-73
2023/06/30 03:58:38;;;;;;;6.03;3.15;;;;;;;;;;4834125;29;20502;-73
2023/06/30 04:01:09;;;;;;;5.45;2.88;;;;;;;;;;4834801;29;20045;-73
2023/06/30 04:03:39;;;;;;;5.78;2.50;;;;;;;;;;4834323;29;20090;-73
2023/06/30 04:06:09;;;;;;;4.32;1.83;;;;;;;;;;4833790;29;20057;-74
2023/06/30 04:08:40;;;;;;;2.22;1.52;;;;;;;;;;4817874;29;20061;-73
2023/06/30 04:11:11;;;;;;;1.58;1.08;;;;;;;;;;4834520;29;20604;-73
2023/06/30 04:13:42;;;;;;;0.98;0.60;;;;;;;;;;4834404;29;20061;-73
2023/06/30 04:16:12;;;;;;;;;;;;;;;;;;4835391;29;20054;-73
2023/06/30 04:18:42;;;;;;;6.53;1.77;;;;;;;;;;4834424;29;19928;-73
2023/06/30 04:21:12;;;;;;;10.65;3.58;;;;;;;;;;4817799;29;20076;-73
2023/06/30 04:23:43;;;;;;;9.10;5.00;;;;;;;;;;4834461;29;20050;-72
2023/06/30 04:26:17;;;;;;;7.93;3.60;;;;;;;;;;4834522;29;20060;-73
2023/06/30 04:28:48;;;;;;;10.35;4.38;;;;;;;;;;4834613;29;20057;-73
2023/06/30 04:31:19;;;;;;;5.93;3.42;;;;;;;;;;4834772;29;20064;-73
2023/06/30 04:33:50;;;;;;;14.95;3.22;;;;;;;;;;4834127;29;20066;-73
2023/06/30 04:36:20;;;;;;;4.60;2.13;;;;;;;;;;4834172;29;20514;-73
2023/06/30 04:38:50;;;;;;;5.00;1.67;;;;;;;;;;4834075;29;20058;-73
2023/06/30 04:41:21;;;;;;;1.98;1.10;;;;;;;;;;4834004;29;20054;-74
2023/06/30 04:43:53;;;;;;;5.57;1.15;;;;;;;;;;4818218;29;20506;-74
2023/06/30 04:46:25;;;;;;;2.80;0.95;;;;;;;;;;4834501;29;20065;-73
2023/06/30 04:48:55;;;;;;;1.33;0.70;;;;;;;;;;4834133;29;20503;-73
2023/06/30 04:51:26;;;;;;;5.65;0.90;;;;;;;;;;4834509;29;20061;-73
2023/06/30 04:53:58;;;;;;;2.05;0.90;;;;;;;;;;4834167;29;20058;-73
2023/06/30 04:56:28;;;;;;;2.97;0.85;;;;;;;;;;4817606;29;20050;-73
2023/06/30 04:58:57;;;;;;;;;;;;;;;;;;4834570;29;20053;-73
2023/06/30 05:01:29;;;;;;;1.15;0.52;;;;;;;;;;4834058;29;20297;-73
2023/06/30 05:04:00;;;;;;;1.52;1.10;;;;;;;;;;4834118;29;20057;-73
2023/06/30 05:06:31;;;;;;;1.85;0.70;;;;;;;;;;4834066;29;20696;-73
2023/06/30 05:09:01;;;;;;;2.35;0.60;;;;;;;;;;4832832;29;20069;-73
2023/06/30 05:11:31;;;;;;;2.78;1.02;;;;;;;;;;4833920;29;20046;-73
2023/06/30 05:14:00;;;;;;;;;;;;;;;;;;4834442;29;20054;-73
2023/06/30 05:16:33;;;;;;;1.80;0.80;;;;;;;;;;4834199;29;20304;-73
2023/06/30 05:19:03;;;;;;;1.95;0.47;;;;;;;;;;4836187;29;20050;-72
2023/06/30 05:21:33;;;;;;;;;;;;;;;;;;4837655;29;20058;-73
2023/06/30 05:24:03;;;;;;;1.33;0.50;;;;;;;;;;4837066;29;19928;-73
2023/06/30 05:26:33;;;;;;;4.20;0.68;;;;;;;;;;4820276;29;20062;-72
2023/06/30 05:29:06;;;;;;;1.63;0.85;;;;;;;;;;4836866;29;20061;-72
2023/06/30 05:31:37;;;;;;;2.15;0.68;;;;;;;;;;4820116;29;20666;-73
2023/06/30 05:34:08;;;;;;;2.08;0.80;;;;;;;;;;4837045;29;20046;-73
2023/06/30 05:36:38;;;;;;;4.35;1.25;;;;;;;;;;4836993;29;20046;-72
2023/06/30 05:39:14;;;;;;;3.33;1.00;;;;;;;;;;4836783;29;20057;-72
2023/06/30 05:41:45;;;;;;;4.75;1.15;;;;;;;;;;4836875;29;20053;-72
2023/06/30 05:44:15;;;;;;;2.53;0.50;;;;;;;;;;4836787;29;20526;-72
2023/06/30 05:46:45;;;;;;;;;;;;;;;;;;4836912;29;20434;-72
2023/06/30 05:49:15;;;;;;;1.63;0.90;;;;;;;;;;4836660;29;19929;-72
2023/06/30 05:51:46;;;;;;;2.03;0.80;;;;;;;;;;4836700;29;20057;-72
2023/06/30 05:54:16;;;;;;;1.33;0.63;;;;;;;;;;4836690;29;20121;-73
2023/06/30 05:56:47;;;;;;;2.33;0.60;;;;;;;;;;4836273;29;20071;-72
2023/06/30 05:59:17;;;;;;;3.17;0.95;;;;;;;;;;4836205;29;20050;-72
2023/06/30 06:01:47;;;;;;;5.03;0.93;;;;;;;;;;4836286;29;20046;-73
2023/06/30 06:04:20;;;;;;;5.97;1.15;;;;;;;;;;4819465;29;20415;-72
2023/06/30 06:06:50;;;;;;;3.75;0.68;;;;;;;;;;4819276;29;20565;-73
2023/06/30 06:09:20;;;;;;;1.38;0.77;;;;;;;;;;4805027;29;20069;-72
2023/06/30 06:11:51;;;;;;;3.60;0.82;;;;;;;;;;4820040;29;20057;-72
2023/06/30 06:14:21;;;;;;;2.42;0.60;;;;;;;;;;4835480;29;20061;-74
2023/06/30 06:16:52;;;;;;;1.38;0.70;;;;;;;;;;4835998;29;20050;-74
2023/06/30 06:19:23;;;;;;;2.75;0.70;;;;;;;;;;4836398;29;20049;-74
2023/06/30 06:21:52;;;;;;;;;;;;;;;;;;4836671;29;20556;-74
2023/06/30 06:24:22;;;;;;;1.13;0.77;;;;;;;;;;4836274;29;19931;-74
2023/06/30 06:26:52;;;;;;;2.67;0.60;;;;;;;;;;4836569;29;20049;-74
2023/06/30 06:29:24;;;;;;;3.55;0.95;;;;;;;;;;4835806;29;20053;-74
2023/06/30 06:31:54;;;;;;;3.63;1.10;;;;;;;;;;4835562;29;20050;-74
2023/06/30 06:34:24;;;;;;;4.40;1.20;;;;;;;;;;4835760;29;20058;-75
2023/06/30 06:36:54;;;;;;;3.90;1.08;;;;;;;;;;4819235;29;20062;-74
2023/06/30 06:39:25;;;;;;;5.90;1.48;;;;;;;;;;4836612;29;20061;-74
2023/06/30 06:41:56;;;;;;;4.63;1.40;;;;;;;;;;4836309;29;20072;-74
2023/06/30 06:44:26;;;;;;;4.70;1.48;;;;;;;;;;4818493;29;20430;-74
2023/06/30 06:47:34;;;;;;;2.83;1.25;;;;;;;;;;4818687;29;20062;-74
2023/06/30 06:50:05;;;;;;;3.00;1.30;;;;;;;;;;4834949;29;20054;-74
2023/06/30 06:52:36;;;;;;;1.70;1.02;;;;;;;;;;4835569;29;20069;-74
2023/06/30 06:55:08;;;;;;;3.70;1.42;;;;;;;;;;4835574;29;20053;-74
2023/06/30 06:57:38;;;;;;;4.95;1.92;;;;;;;;;;4819432;29;20514;-74
2023/06/30 07:00:08;;;;;;;;;;;;;;;;;;4835954;29;20418;-74
2023/06/30 07:02:38;;;;;;;1.90;1.25;;;;;;;;;;4835414;29;19924;-74
2023/06/30 07:05:09;;;;;;;2.35;1.17;;;;;;;;;;4819523;29;20061;-74
2023/06/30 07:07:40;;;;;;;2.38;1.15;;;;;;;;;;4835140;29;20053;-74
2023/06/30 07:10:12;;;;;;;1.52;1.02;;;;;;;;;;4835431;29;20054;-74
2023/06/30 07:12:41;;;;;;;4.82;1.40;;;;;;;;;;4817688;29;20411;-74
2023/06/30 07:15:13;;;;;;;12.50;1.92;;;;;;;;;;4835208;29;20062;-74
2023/06/30 07:17:43;;;;;;;3.25;1.50;;;;;;;;;;4835018;29;20493;-74
2023/06/30 07:20:14;;;;;;;5.25;1.30;;;;;;;;;;4834884;29;20054;-74
2023/06/30 07:22:44;;;;;;;3.40;1.95;;;;;;;;;;4834805;29;20474;-74
2023/06/30 07:25:15;;;;;;;4.10;2.03;;;;;;;;;;4803375;29;20053;-74
2023/06/30 07:27:53;;;;;;;2.53;1.40;;;;;;;;;;4834962;29;20054;-74
2023/06/30 07:30:25;;;;;;;5.47;1.23;;;;;;;;;;4835618;29;20050;-74
2023/06/30 07:32:56;;;;;;;3.78;1.33;;;;;;;;;;4835516;29;20057;-74
2023/06/30 07:35:26;;;;;;;3.92;1.50;;;;;;;;;;4834533;29;20053;-74
2023/06/30 07:37:57;;;;;;;1.58;1.08;;;;;;;;;;4834992;29;20422;-74
2023/06/30 07:40:27;;;;;;;5.43;1.70;;;;;;;;;;4834073;29;20080;-74
2023/06/30 07:43:14;;;;;;;8.10;2.42;;;;;;;;;;4820993;29;20065;-74
2023/06/30 07:45:45;;;;;;;3.15;1.40;;;;;;;;;;4834813;29;20510;-74
2023/06/30 07:48:17;;;;;;;5.10;1.40;;;;;;;;;;4834448;29;20510;-74
2023/06/30 07:50:47;;;;;;;3.45;1.27;;;;;;;;;;4834628;29;20050;-74
2023/06/30 07:53:36;;;;;;;4.60;1.60;;;;;;;;;;4834442;29;20050;-74
2023/06/30 07:56:07;;;;;;;4.32;1.50;;;;;;;;;;4834325;29;20085;-74
2023/06/30 07:58:37;;;;;;;7.53;1.90;;;;;;;;;;4834969;29;20498;-74
2023/06/30 08:01:08;;;;;;;2.88;1.40;;;;;;;;;;4817764;29;20502;-74
2023/06/30 08:03:38;;;;;;;3.17;1.92;;;;;;;;;;4834722;29;20503;-74
2023/06/30 08:06:08;;;;;;;6.50;1.50;;;;;;;;;;4834511;29;20521;-75
2023/06/30 08:08:40;;;;;;;4.95;1.42;;;;;;;;;;4834514;29;20054;-74
2023/06/30 08:11:10;;;;;;;4.65;1.98;;;;;;;;;;4834148;29;20054;-74
2023/06/30 08:13:40;;;;;;;3.88;1.60;;;;;;;;;;4802884;29;20627;-74
2023/06/30 08:16:11;;;;;;;3.53;1.60;;;;;;;;;;4834526;29;20077;-74
2023/06/30 08:18:42;;;;;;;6.97;1.75;;;;;;;;;;4834467;29;20063;-74
2023/06/30 08:21:20;;;;;;;3.47;1.63;;;;;;;;;;4834126;29;20065;-74
2023/06/30 08:23:51;;;;;;;6.75;1.48;;;;;;;;;;4834018;29;20058;-74
2023/06/30 08:26:21;;;;;;;4.90;1.85;;;;;;;;;;4818604;29;20074;-74
2023/06/30 08:28:51;;;;;;;3.80;1.95;;;;;;;;;;4834414;29;20062;-74
2023/06/30 08:31:23;;;;;;;2.33;1.38;;;;;;;;;;4834109;29;20061;-74
2023/06/30 08:33:54;;;;;;;4.38;1.60;;;;;;;;;;4833547;29;20050;-74
2023/06/30 08:36:24;;;;;;;3.30;1.40;;;;;;;;;;4834237;29;20637;-74
2023/06/30 08:38:54;;;;;;;4.63;1.98;;;;;;;;;;4834532;29;20517;-74
2023/06/30 08:41:26;;;;;;;4.45;1.65;;;;;;;;;;4834366;29;20046;-74
2023/06/30 08:43:59;;;;;;;2.97;1.20;;;;;;;;;;4834550;29;20057;-74
2023/06/30 08:46:30;;;;;;;3.05;1.02;;;;;;;;;;4833993;29;20058;-74
2023/06/30 08:49:00;;;;;;;3.08;1.30;;;;;;;;;;4834349;29;20069;-74
2023/06/30 08:51:31;;;;;;;4.88;1.50;;;;;;;;;;4834134;29;20050;-74
2023/06/30 08:54:02;;;;;;;1.80;1.20;;;;;;;;;;4837273;29;20054;-74
2023/06/30 08:56:36;;;;;;;6.45;1.60;;;;;;;;;;4837741;29;20062;-74
2023/06/30 08:59:06;;;;;;;8.43;1.40;;;;;;;;;;4837689;29;20065;-75
2023/06/30 09:01:38;;;;;;;1.88;0.93;;;;;;;;;;4837367;29;20050;-75
2023/06/30 09:04:10;;;;;;;3.20;1.05;;;;;;;;;;4837594;29;20065;-77
2023/06/30 09:06:49;;;;;;;6.47;1.33;;;;;;;;;;4836952;29;20131;-75
2023/06/30 09:09:36;;;;;;;2.80;1.52;;;;;;;;;;4837151;29;20081;-75
2023/06/30 09:12:11;;;;;;;5.32;1.40;;;;;;;;;;4837541;29;20061;-74
2023/06/30 09:14:46;;;;;;;3.63;1.63;;;;;;;;;;4821199;29;20419;-74
2023/06/30 09:17:19;;;;;;;3.67;1.80;;;;;;;;;;4820532;29;20061;-74
2023/06/30 09:19:50;;;;;;;9.82;1.70;;;;;;;;;;4836869;29;20053;-75
2023/06/30 09:22:21;;;;;;;2.53;1.60;;;;;;;;;;4836994;29;20375;-74
2023/06/30 09:25:27;;;;;;;5.72;1.55;;;;;;;;;;4836877;29;20061;-76
2023/06/30 09:27:58;;;;;;;4.15;1.40;;;;;;;;;;4837119;29;20054;-76
2023/06/30 09:30:34;;;;;;;6.03;1.30;;;;;;;;;;4837293;29;20054;-74
2023/06/30 09:33:08;;;;;;;3.53;1.90;;;;;;;;;;4837407;29;20050;-74
2023/06/30 09:35:41;;;;;;;8.57;1.75;;;;;;;;;;4836916;29;20053;-74
2023/06/30 09:38:14;;;;;;;5.82;1.17;;;;;;;;;;4836644;29;20062;-74
2023/06/30 09:40:49;;;;;;;5.72;1.70;;;;;;;;;;4836497;29;20049;-74
2023/06/30 09:43:25;;;;;;;7.28;1.80;;;;;;;;;;4837216;29;20054;-77
2023/06/30 09:45:59;;;;;;;3.55;1.20;;;;;;;;;;4836720;29;20545;-74
2023/06/30 09:48:39;;;;;;;3.58;1.45;;;;;;;;;;4836710;29;20417;-74
2023/06/30 09:51:12;;;;;;;2.00;1.00;;;;;;;;;;4836395;29;20057;-75
2023/06/30 09:53:43;;;;;;;4.07;1.60;;;;;;;;;;4836568;29;20057;-75
2023/06/30 09:56:22;;;;;;;3.70;1.30;;;;;;;;;;4836617;29;20058;-75
2023/06/30 09:58:59;;;;;;;8.05;1.60;;;;;;;;;;4819873;29;20073;-74
2023/06/30 10:01:31;;;;;;;4.97;1.38;;;;;;;;;;4836560;29;20045;-74
2023/06/30 10:04:02;;;;;;;3.58;1.33;;;;;;;;;;4835837;29;20057;-74
2023/06/30 10:06:36;;;;;;;5.15;1.38;;;;;;;;;;4835531;29;20066;-74
2023/06/30 10:09:07;;;;;;;6.80;1.50;;;;;;;;;;4836272;29;20046;-74
2023/06/30 10:11:38;;;;;;;9.05;2.20;;;;;;;;;;4836347;29;20547;-74
2023/06/30 10:14:15;;;;;;;3.95;1.33;;;;;;;;;;4835908;29;20054;-74
2023/06/30 10:16:48;;;;;;;8.05;1.88;;;;;;;;;;4835961;29;20053;-74
2023/06/30 10:19:18;;;;;;;11.63;2.42;;;;;;;;;;4836615;29;20391;-75
2023/06/30 10:21:49;;;;;;;4.35;1.15;;;;;;;;;;4836572;29;20475;-75
2023/06/30 10:24:26;;;;;;;4.65;1.70;;;;;;;;;;4835693;29;20061;-75
2023/06/30 10:27:00;;;;;;;9.63;1.48;;;;;;;;;;4836020;29;20069;-75
2023/06/30 10:29:31;;;;;;;7.63;2.50;;;;;;;;;;4836047;29;20652;-73
2023/06/30 10:32:03;;;;;;;7.40;2.55;;;;;;;;;;4835583;29;20042;-73
2023/06/30 10:34:35;;;;;;;7.20;2.15;;;;;;;;;;4835839;29;20462;-73
2023/06/30 10:37:05;;;;;;;8.05;1.77;;;;;;;;;;4836167;29;20054;-74
2023/06/30 10:39:36;;;;;;;7.55;2.35;;;;;;;;;;4836359;29;20056;-73
2023/06/30 10:42:12;;;;;;;2.72;1.38;;;;;;;;;;4835574;29;20058;-74
2023/06/30 10:44:48;;;;;;;3.55;1.38;;;;;;;;;;4835971;29;20081;-73
2023/06/30 10:47:27;;;;;;;2.95;1.20;;;;;;;;;;4835084;29;20054;-74
2023/06/30 10:50:12;;;;;;;2.30;1.58;;;;;;;;;;4835625;29;20050;-74
2023/06/30 10:52:50;;;;;;;;;;;;;;;;;;4835768;29;20041;-73
2023/06/30 10:55:27;;;;;;;2.20;1.52;;;;;;;;;;4832104;29;20305;-73
2023/06/30 10:57:59;;;;;;;5.15;1.33;;;;;;;;;;4831841;29;20050;-74
2023/06/30 11:00:34;;;;;;;4.72;1.60;;;;;;;;;;4835488;29;20050;-73
2023/06/30 11:03:06;;;;;;;5.65;1.73;;;;;;;;;;4835020;29;20053;-74
2023/06/30 11:05:38;;;;;;;9.50;2.08;;;;;;;;;;4835808;29;20046;-75
2023/06/30 11:08:21;;;;;;;4.32;1.63;;;;;;;;;;4835340;29;20053;-74
2023/06/30 11:10:51;;;;;;;5.35;1.85;;;;;;;;;;4835651;29;20050;-74
2023/06/30 11:13:38;;;;;;;;;;;;;;;;;;4835669;29;20054;-76
2023/06/30 11:16:09;;;;;;;6.03;2.72;;;;;;;;;;4834953;29;20293;-75
2023/06/30 11:18:39;;;;;;;6.82;2.38;;;;;;;;;;4834706;29;20065;-74
2023/06/30 11:21:10;;;;;;;4.18;2.42;;;;;;;;;;4835080;29;20383;-74
2023/06/30 11:23:43;;;;;;;5.60;2.33;;;;;;;;;;4835151;29;20046;-75
2023/06/30 11:26:19;;;;;;;3.70;2.33;;;;;;;;;;4835197;29;20073;-75
2023/06/30 11:28:50;;;;;;;4.15;2.22;;;;;;;;;;4835182;29;20054;-75
2023/06/30 11:31:21;;;;;;;5.15;2.05;;;;;;;;;;4819159;29;20060;-74
2023/06/30 11:33:54;;;;;;;3.15;1.98;;;;;;;;;;4834516;29;20054;-75
2023/06/30 11:36:31;;;;;;;12.73;2.58;;;;;;;;;;4818037;29;20069;-74
2023/06/30 11:39:02;;;;;;;5.18;2.53;;;;;;;;;;4833675;29;20054;-75
2023/06/30 11:41:33;;;;;;;6.68;2.67;;;;;;;;;;4834944;29;20061;-74
2023/06/30 11:44:04;;;;;;;5.55;3.00;;;;;;;;;;4835241;29;20053;-75
2023/06/30 11:46:39;;;;;;;10.48;3.42;;;;;;;;;;4835028;29;20054;-73
2023/06/30 11:49:11;;;;;;;12.80;3.00;;;;;;;;;;4835239;29;20054;-74
2023/06/30 11:51:41;;;;;;;8.18;3.65;;;;;;;;;;4834437;29;20502;-75
2023/06/30 11:54:14;;;;;;;4.88;2.70;;;;;;;;;;4834679;29;20061;-74
2023/06/30 11:56:44;;;;;;;9.30;2.58;;;;;;;;;;4834363;29;20597;-74
2023/06/30 11:59:15;;;;;;;10.15;3.22;;;;;;;;;;4835367;29;20418;-74
2023/06/30 12:01:45;;;;;;;5.90;2.95;;;;;;;;;;4834552;29;20046;-75
2023/06/30 12:04:15;;;;;;;6.47;2.83;;;;;;;;;;4834318;29;20053;-75
2023/06/30 12:06:47;;;;;;;16.70;5.18;;;;;;;;;;4818827;29;20046;-76
2023/06/30 12:09:17;;;;;;;12.18;3.55;;;;;;;;;;4834674;29;20605;-76
2023/06/30 12:11:49;;;;;;;6.45;3.20;;;;;;;;;;4818852;29;20061;-75
2023/06/30 12:14:26;;;;;;;4.50;2.97;;;;;;;;;;4834599;29;20514;-74
2023/06/30 12:16:57;;;;;;;4.72;2.78;;;;;;;;;;4834534;29;20653;-74
2023/06/30 12:19:29;;;;;;;11.85;3.95;;;;;;;;;;4818707;29;20506;-75
2023/06/30 12:22:06;;;;;;;11.07;4.15;;;;;;;;;;4834686;29;20068;-75
2023/06/30 12:24:38;;;;;;;8.00;4.78;;;;;;;;;;4834165;29;20411;-75
2023/06/30 12:27:09;;;;;;;14.73;10.32;;;;;;;;;;4834622;29;20060;-74
2023/06/30 12:29:46;;;;;;;10.57;6.03;;;;;;;;;;4839371;29;20418;-74
2023/06/30 12:32:17;;;;;;;12.02;5.15;;;;;;;;;;4838348;29;20505;-74
2023/06/30 12:34:47;;;;;;;10.55;5.20;;;;;;;;;;4838059;29;20470;-74
2023/06/30 12:37:20;;;;;;;10.82;5.68;;;;;;;;;;4837446;29;20446;-74
2023/06/30 12:39:52;;;;;;;12.85;4.53;;;;;;;;;;4837318;29;20061;-73
2023/06/30 12:42:24;;;;;;;6.75;4.20;;;;;;;;;;4837579;29;20054;-73
2023/06/30 12:44:56;;;;;;;9.75;4.30;;;;;;;;;;4838249;29;20054;-73
2023/06/30 12:47:26;;;;;;;12.88;4.30;;;;;;;;;;4838200;29;20053;-74
2023/06/30 12:49:57;;;;;;;7.20;4.15;;;;;;;;;;4837963;29;20054;-74
2023/06/30 12:52:28;;;;;;;15.68;4.35;;;;;;;;;;4837387;29;20054;-74
2023/06/30 12:55:01;;;;;;;5.65;4.03;;;;;;;;;;4837615;29;20054;-73
2023/06/30 12:57:33;;;;;;;8.23;3.80;;;;;;;;;;4837672;29;20522;-73
2023/06/30 13:00:09;;;;;;;20.33;5.30;;;;;;;;;;4837668;29;20536;-74
2023/06/30 13:02:40;;;;;;;11.45;5.07;;;;;;;;;;4821986;29;20520;-74
2023/06/30 13:05:11;;;;;;;9.98;4.22;;;;;;;;;;4821129;29;20057;-73
2023/06/30 13:07:41;;;;;;;6.35;4.40;;;;;;;;;;4837308;29;20049;-73
2023/06/30 13:10:13;;;;;;;9.82;4.32;;;;;;;;;;4837321;29;20054;-75
2023/06/30 13:12:45;;;;;;;9.73;4.10;;;;;;;;;;4837353;29;20054;-73
2023/06/30 13:15:15;;;;;;;11.27;4.50;;;;;;;;;;4837030;29;20061;-74
2023/06/30 13:17:46;;;;;;;14.48;6.03;;;;;;;;;;4837044;29;20057;-74
2023/06/30 13:20:17;;;;;;;8.45;4.35;;;;;;;;;;4837698;29;20050;-74
2023/06/30 13:22:48;;;;;;;7.47;3.28;;;;;;;;;;4836620;29;20406;-73
2023/06/30 13:25:38;;;;;;;7.93;4.25;;;;;;;;;;4836830;29;20426;-74
2023/06/30 13:28:08;;;;;;;9.85;3.63;;;;;;;;;;4836855;29;20046;-74
2023/06/30 13:30:39;;;;;;;11.43;3.83;;;;;;;;;;4836934;29;20046;-73
2023/06/30 13:33:10;;;;;;;7.50;3.00;;;;;;;;;;4820285;29;20058;-74
2023/06/30 13:35:42;;;;;;;7.57;2.97;;;;;;;;;;4837405;29;20529;-74
2023/06/30 13:38:16;;;;;;;6.38;3.13;;;;;;;;;;4819450;29;20835;-74
2023/06/30 13:40:47;;;;;;;8.35;2.85;;;;;;;;;;4836446;29;20679;-74
2023/06/30 13:43:19;;;;;;;8.00;3.35;;;;;;;;;;4837043;29;20050;-74
2023/06/30 13:45:49;;;;;;;4.50;3.10;;;;;;;;;;4819845;29;20060;-74
2023/06/30 13:48:20;;;;;;;16.35;3.67;;;;;;;;;;4836667;29;20065;-74
2023/06/30 13:50:50;;;;;;;4.53;2.70;;;;;;;;;;4836991;29;20053;-73
2023/06/30 13:53:21;;;;;;;8.65;3.20;;;;;;;;;;4836806;29;20049;-74
2023/06/30 13:55:52;;;;;;;22.13;16.05;;;;;;;;;;4836697;29;20050;-75
2023/06/30 13:58:23;;;;;;;5.05;2.65;;;;;;;;;;4836404;29;20112;-74
2023/06/30 14:00:55;;;;;;;5.20;2.92;;;;;;;;;;4836296;29;20057;-75
2023/06/30 14:03:26;;;;;;;5.18;2.60;;;;;;;;;;4835762;29;20058;-74
2023/06/30 14:05:56;;;;;;;13.35;4.93;;;;;;;;;;4836455;29;20478;-73
2023/06/30 14:08:26;;;;;;;7.75;3.03;;;;;;;;;;4836282;29;20054;-75
2023/06/30 14:10:57;;;;;;;12.20;4.28;;;;;;;;;;4836672;29;20054;-74
2023/06/30 14:13:29;;;;;;;11.48;3.00;;;;;;;;;;4836022;29;20061;-76
2023/06/30 14:15:58;;;;;;;7.35;3.33;;;;;;;;;;4835922;29;20065;-74
2023/06/30 14:18:29;;;;;;;7.72;3.63;;;;;;;;;;4819869;29;20060;-75
2023/06/30 14:21:01;;;;;;;8.80;4.18;;;;;;;;;;4836042;29;20510;-73
2023/06/30 14:23:32;;;;;;;5.00;2.90;;;;;;;;;;4836159;29;20089;-73
2023/06/30 14:26:03;;;;;;;10.50;3.50;;;;;;;;;;4819825;29;20058;-76
2023/06/30 14:28:34;;;;;;;11.73;4.43;;;;;;;;;;4836371;29;20061;-73
2023/06/30 14:31:07;;;;;;;12.90;4.55;;;;;;;;;;4835659;29;20410;-73
2023/06/30 14:33:39;;;;;;;6.53;3.95;;;;;;;;;;4835306;29;20518;-76
2023/06/30 14:36:09;;;;;;;6.20;3.78;;;;;;;;;;4835468;29;20046;-76
2023/06/30 14:38:39;;;;;;;7.25;3.70;;;;;;;;;;4835473;29;20053;-77
2023/06/30 14:41:10;;;;;;;8.40;3.67;;;;;;;;;;4820087;29;20053;-76
2023/06/30 14:43:41;;;;;;;12.38;4.22;;;;;;;;;;4835937;29;20057;-75
2023/06/30 14:46:12;;;;;;;7.30;3.53;;;;;;;;;;4835866;29;20049;-76
2023/06/30 14:48:42;;;;;;;8.32;3.90;;;;;;;;;;4835713;29;20050;-76
2023/06/30 14:51:13;;;;;;;7.28;3.47;;;;;;;;;;4835168;29;20521;-76
2023/06/30 14:53:44;;;;;;;9.57;3.20;;;;;;;;;;4835526;29;20049;-76
2023/06/30 14:56:14;;;;;;;10.00;3.70;;;;;;;;;;4835709;29;20120;-75
2023/06/30 14:58:47;;;;;;;6.32;3.38;;;;;;;;;;4835573;29;20060;-76
2023/06/30 15:01:18;;;;;;;7.57;3.75;;;;;;;;;;4819159;29;20058;-76
2023/06/30 15:03:51;;;;;;;8.65;3.30;;;;;;;;;;4835269;29;20058;-76
2023/06/30 15:06:21;;;;;;;5.65;3.30;;;;;;;;;;4835339;29;20060;-75
2023/06/30 15:08:52;;;;;;;9.23;3.20;;;;;;;;;;4835799;29;20053;-74
2023/06/30 15:11:23;;;;;;;9.60;3.45;;;;;;;;;;4835289;29;20065;-75
2023/06/30 15:13:56;;;;;;;4.90;3.22;;;;;;;;;;4819670;29;20058;-74
2023/06/30 15:16:25;;;;;;;8.57;3.60;;;;;;;;;;4835870;29;20088;-75